Colfax, WA (99111)

1:42 PM PST on February 11, 2016 (GMT -0800)
Barclay Ridge | | Change Station
CLOSE
Current Station
Personal Weather Station
Location: Pullman, WA
Elevation: 2644 ft
Nearby Weather Stations

Elev 2644 ft 46.73 °N, 117.21 °W | Updated 13 minutes ago

Overcast
Overcast
46.8 °F
Feels Like 42 °F
N
9.4
Wind Variable Wind from ENE

Today
High -- | Low -- °F
--% Chance of Precip.
Yesterday
High -- | Low -- °F
Precip. -- in
Pressure 30.28 in
Visibility 10.0 miles
Clouds Overcast 7500 ft
Windchill 42 °F
Dew Point 40 °F
Humidity 78%
Rainfall 0.00 in
Snow Depth Not available.
7:00 AM 5:07 PM
Waxing Crescent, 14% visible
METAR KPUW 112053Z AUTO 09014KT 10SM OVC075 09/03 A3025 RMK AO2 SLP253 T00940028 58018
Pressure 30.28 in
Visibility 10.0 miles
Clouds Overcast 7500 ft
Windchill 42 °F
Dew Point 40 °F
Humidity 78%
Rainfall 0.00 in
Snow Depth Not available.
7:00 AM 5:07 PM
Waxing Crescent, 14% visible
METAR KPUW 112053Z AUTO 09014KT 10SM OVC075 09/03 A3025 RMK AO2 SLP253 T00940028 58018

10-Day Weather Forecast

Almanac

Astronomy

Feb. 11, 2016 Rise Set
Actual Time
Civil Twilight
Nautical Twilight
Astronomical Twilight
Moon
Length of Visible Light
Length of Day
Tomorrow will be .
, % of the Moon is Illuminated

Today's Extremes

State Highs State Lows

Community

WunderPhotos

Upload Photos

1,892,165 photos uploaded!

WunderBlog® & News

Nearby

Air Quality

  Air Quality AQ Index Pollutant
Not available.

Snow Depth

Station Depth Elevation

Earthquake Activity

City Distance Mag. Time & Date
Minimum magnitude displayed is 2.5.

Coastal Water Temperatures

Place Temperature

Stations

Nearby Weather Stations

Station Location Temp. Windchill Dew Point Humidity Wind Precip. Elev Updated Type
                   

Watches & Warnings

There are currently no watches in effect.